aviador You're here:

LFOB Decoded Metar

BEAUVAIS in FRANCE
Report Time2018-01-17 05:00:00
UTC Time2018-01-17 05:16:18
Flight Rules vfr VFR
Wind270° at 22 kt
W.Decomp.*RWY 30: 19.2 kt HW 10.7 kt LCW
RWY 22: 13.8 kt HW 17.1 kt RCW
W.Rank270° ranks 12
Current wind is above 270° avg. (7.5)
Visibility9999 m
Phenomena:N/A
Clouds:Broken 007 Hf
Few 026 Hf
Scattered 047 Hf
Broken 062 Hf
Expected CloudBase > 1,200 ft AGL from Temp-Dew spread
Ceiling6,200 ft
Temp03°C (ISA -11)
Dew Point00°C (81% RH)
AAT-6.9°C
QNH1003 hPa
Density Alt-577 ft
Elevation364 ft
Report Wrong Elevation
Raw Report
LFOB 170500Z AUTO 27022KT 9999 FEW026 SCT047 BKN062 03/00 Q1003
TEMPO 28025G40KT 2000 TSRAGS BKN007 BKN015CB=

Extra information for LFOB:More info

Metar Taf Metar & Taf Last 4 Metars F.Rules Stats Wind Profile Meteogram Temp Stats Airport Information Weather charts Add Link Nearby VenuesMetar ALERT Operation Metar Decoded Social comments